Accueil
Images satellite Prévisions 15 joursClimatMétéo marine Cyclones Foudre AéroportsFAQ Actualités A propos
Météo : Europe Afrique Amérique du Nord Amérique du Sud Asie Australie-Océanie Autres
Langues Contact

Coxyde, Belgique

latitude: 51-05N, longitude: 002-39E, altitude: 4 m


METAR: EBFN 011325Z 31008KT 9999 FEW033 SCT050 BKN240 20/15 Q1010 BLU BLU
short-TAF: EBFN 011141Z 0113/0122 24005KT 9999 FEW025 SCT220 TEMPO 0113/0118 34008KT FEW020 SCT027 BECMG 0117/0119 03008KT FEW025 BKN030 PROB40 TEMPO 0120/0122 7000 -SHRA/SHRA SCT030TCU SCT040 PROB30 TEMPO 0120/0122 4000 -TSRA SCT025CB SCT040
long-TAF: EBFN 311541Z 3119/0107 22007KT 9999 FEW040 BKN240 TEMPO 0101/0107 6000 FEW150 BKN200 PROB30 TEMPO 0102/0107 BKN006

Heure: 15:50 (13:50 UTC)

Observation

Le bulletin a été fait il y a 25 minutes, à 13:25 UTC  
Vent 08 kt de nord-ouest
Température 20°C
Humidité 73%
Pression 1010 hPa
Visibilité 10 km ou plus
Quelques nuages à une hauteur de 3300 ft
Nuages épars à une hauteur de 5000 ft
Nuages fragmentés à une hauteur de 24000 ft

Changer d'unités

Prévision

Le bulletin a été fait il y a 2 heures et 2 minutes, à 11:48 UTC  
Prévision valable du 01 à 13 UTC au 01 à 22 UTC
Vent 05 kt de ouest/sud-ouest
Visibilité 10 km ou plus
Quelques nuages à une hauteur de 2500 ft
Nuages épars à une hauteur de 22000 ft
Temporairement
du 01 à 13 UTC au 01 à 18 UTC
Vent 08 kt de nord/nord-ouest
Quelques nuages à une hauteur de 2000 ft
Nuages épars à une hauteur de 2700 ft
Evoluant progressivement
du 01 à 17 UTC au 01 à 19 UTC
Vent 08 kt de nord/nord-est
Quelques nuages à une hauteur de 2500 ft
Nuages fragmentés à une hauteur de 3000 ft
Probabilité 40% :
Temporairement
du 01 à 20 UTC au 01 à 22 UTC
Visibilité 7000 m
Nuages épars à une hauteur de 3000 ft , Cumulus congestus.
Nuages épars à une hauteur de 4000 ft
Probabilité 30% :
Temporairement
du 01 à 20 UTC au 01 à 22 UTC
Visibilité 4000 m
Nuages épars à une hauteur de 2500 ft , Cumulonimbus.
Nuages épars à une hauteur de 4000 ft
faible orage pluie

Prévision

Le bulletin a été fait il y a 21 heures et 56 minutes, à 15:54 UTC  
Prévision valable du 31 à 19 UTC au 01 à 07 UTC
Vent 07 kt de sud-ouest
Visibilité 10 km ou plus
Quelques nuages à une hauteur de 4000 ft
Nuages fragmentés à une hauteur de 24000 ft
Temporairement
du 01 à 01 UTC au 01 à 07 UTC
Visibilité 6000 m
Quelques nuages à une hauteur de 15000 ft
Nuages fragmentés à une hauteur de 20000 ft
Probabilité 30% :
Temporairement
du 01 à 02 UTC au 01 à 07 UTC
Nuages fragmentés à une hauteur de 600 ft
Les informations qui figurent sur ce site font l'objet d'une clause de non-responsabilité
Météo : Europe Afrique Amérique du Nord Amérique du Sud Asie Australie-Océanie Autres
Images satellite Prévisions 15 joursClimatMétéo marine Cyclones Foudre AéroportsFAQ Langues Contact Actualités A propos